sensor_id;sensor_type;location;lat;lon;timestamp;P1;durP1;ratioP1;P2;durP2;ratioP2
6288;SDS011;3177;49.880;8.836;2023-02-28T00:00:40;3.00;;;2.80;;
6288;SDS011;3177;49.880;8.836;2023-02-28T00:03:08;3.00;;;2.80;;
6288;SDS011;3177;49.880;8.836;2023-02-28T00:05:35;3.70;;;3.40;;
6288;SDS011;3177;49.880;8.836;2023-02-28T00:08:03;5.47;;;3.20;;
6288;SDS011;3177;49.880;8.836;2023-02-28T00:10:31;4.00;;;3.43;;
6288;SDS011;3177;49.880;8.836;2023-02-28T00:12:59;3.13;;;2.93;;
6288;SDS011;3177;49.880;8.836;2023-02-28T00:15:26;3.20;;;3.00;;
6288;SDS011;3177;49.880;8.836;2023-02-28T00:17:53;3.40;;;3.10;;
6288;SDS011;3177;49.880;8.836;2023-02-28T00:20:21;3.73;;;3.17;;
6288;SDS011;3177;49.880;8.836;2023-02-28T00:22:48;4.77;;;3.30;;
6288;SDS011;3177;49.880;8.836;2023-02-28T00:25:17;3.23;;;3.03;;
6288;SDS011;3177;49.880;8.836;2023-02-28T00:27:45;3.83;;;3.53;;
6288;SDS011;3177;49.880;8.836;2023-02-28T00:30:13;3.40;;;3.10;;
6288;SDS011;3177;49.880;8.836;2023-02-28T00:32:40;3.83;;;3.23;;
6288;SDS011;3177;49.880;8.836;2023-02-28T00:35:08;3.80;;;3.30;;
6288;SDS011;3177;49.880;8.836;2023-02-28T00:37:35;3.60;;;3.30;;
6288;SDS011;3177;49.880;8.836;2023-02-28T00:40:03;3.07;;;2.80;;
6288;SDS011;3177;49.880;8.836;2023-02-28T00:42:32;5.03;;;3.07;;
6288;SDS011;3177;49.880;8.836;2023-02-28T00:45:00;3.23;;;3.00;;
6288;SDS011;3177;49.880;8.836;2023-02-28T00:47:28;3.47;;;3.17;;
6288;SDS011;3177;49.880;8.836;2023-02-28T00:49:55;3.57;;;3.20;;
6288;SDS011;3177;49.880;8.836;2023-02-28T00:52:22;3.50;;;3.30;;
6288;SDS011;3177;49.880;8.836;2023-02-28T00:54:49;3.43;;;3.23;;
6288;SDS011;3177;49.880;8.836;2023-02-28T00:57:16;4.53;;;3.30;;
6288;SDS011;3177;49.880;8.836;2023-02-28T00:59:45;3.67;;;3.37;;
6288;SDS011;3177;49.880;8.836;2023-02-28T01:02:12;4.60;;;3.10;;
6288;SDS011;3177;49.880;8.836;2023-02-28T01:04:39;3.77;;;3.47;;
6288;SDS011;3177;49.880;8.836;2023-02-28T01:07:06;4.27;;;3.27;;
6288;SDS011;3177;49.880;8.836;2023-02-28T01:09:33;3.50;;;3.30;;
6288;SDS011;3177;49.880;8.836;2023-02-28T01:12:00;4.07;;;3.77;;
6288;SDS011;3177;49.880;8.836;2023-02-28T01:14:27;3.60;;;3.30;;
6288;SDS011;3177;49.880;8.836;2023-02-28T01:16:56;3.60;;;3.13;;
6288;SDS011;3177;49.880;8.836;2023-02-28T01:19:23;4.80;;;3.00;;
6288;SDS011;3177;49.880;8.836;2023-02-28T01:21:50;4.53;;;3.20;;
6288;SDS011;3177;49.880;8.836;2023-02-28T01:24:17;3.30;;;3.10;;
6288;SDS011;3177;49.880;8.836;2023-02-28T01:26:44;3.60;;;3.30;;
6288;SDS011;3177;49.880;8.836;2023-02-28T01:29:11;3.63;;;3.33;;
6288;SDS011;3177;49.880;8.836;2023-02-28T01:31:38;3.07;;;2.87;;
6288;SDS011;3177;49.880;8.836;2023-02-28T01:34:06;3.50;;;3.20;;
6288;SDS011;3177;49.880;8.836;2023-02-28T01:36:33;3.20;;;3.00;;
6288;SDS011;3177;49.880;8.836;2023-02-28T01:39:01;3.57;;;2.80;;
6288;SDS011;3177;49.880;8.836;2023-02-28T01:41:29;6.43;;;3.20;;
6288;SDS011;3177;49.880;8.836;2023-02-28T01:43:57;3.10;;;2.90;;
6288;SDS011;3177;49.880;8.836;2023-02-28T01:46:28;3.30;;;3.00;;
6288;SDS011;3177;49.880;8.836;2023-02-28T01:48:57;3.53;;;3.30;;
6288;SDS011;3177;49.880;8.836;2023-02-28T01:51:29;6.60;;;3.53;;
6288;SDS011;3177;49.880;8.836;2023-02-28T01:53:58;3.63;;;3.33;;
6288;SDS011;3177;49.880;8.836;2023-02-28T01:56:27;4.43;;;4.03;;
6288;SDS011;3177;49.880;8.836;2023-02-28T01:58:55;3.60;;;3.40;;
6288;SDS011;3177;49.880;8.836;2023-02-28T02:01:23;4.30;;;3.37;;
6288;SDS011;3177;49.880;8.836;2023-02-28T02:03:52;6.03;;;3.60;;
6288;SDS011;3177;49.880;8.836;2023-02-28T02:06:21;3.60;;;3.30;;
6288;SDS011;3177;49.880;8.836;2023-02-28T02:08:50;4.03;;;3.60;;
6288;SDS011;3177;49.880;8.836;2023-02-28T02:11:19;3.43;;;3.20;;
6288;SDS011;3177;49.880;8.836;2023-02-28T02:16:52;4.83;;;3.20;;
6288;SDS011;3177;49.880;8.836;2023-02-28T02:19:33;3.43;;;3.20;;
6288;SDS011;3177;49.880;8.836;2023-02-28T02:22:12;3.33;;;3.13;;
6288;SDS011;3177;49.880;8.836;2023-02-28T02:25:06;3.70;;;3.40;;
6288;SDS011;3177;49.880;8.836;2023-02-28T02:27:39;3.50;;;3.30;;
6288;SDS011;3177;49.880;8.836;2023-02-28T02:30:17;3.57;;;3.27;;
6288;SDS011;3177;49.880;8.836;2023-02-28T02:33:03;4.07;;;3.67;;
6288;SDS011;3177;49.880;8.836;2023-02-28T02:35:33;3.30;;;3.10;;
6288;SDS011;3177;49.880;8.836;2023-02-28T02:38:03;3.50;;;3.30;;
6288;SDS011;3177;49.880;8.836;2023-02-28T02:40:35;3.93;;;3.03;;
6288;SDS011;3177;49.880;8.836;2023-02-28T02:43:04;3.43;;;3.13;;
6288;SDS011;3177;49.880;8.836;2023-02-28T02:45:34;3.60;;;3.30;;
6288;SDS011;3177;49.880;8.836;2023-02-28T02:48:05;3.87;;;3.57;;
6288;SDS011;3177;49.880;8.836;2023-02-28T02:50:36;3.53;;;3.30;;
6288;SDS011;3177;49.880;8.836;2023-02-28T02:53:03;3.37;;;3.17;;
6288;SDS011;3177;49.880;8.836;2023-02-28T02:55:31;4.73;;;3.47;;
6288;SDS011;3177;49.880;8.836;2023-02-28T02:58:01;3.83;;;3.53;;
6288;SDS011;3177;49.880;8.836;2023-02-28T03:00:30;3.57;;;3.37;;
6288;SDS011;3177;49.880;8.836;2023-02-28T03:02:58;3.80;;;3.50;;
6288;SDS011;3177;49.880;8.836;2023-02-28T03:05:26;3.43;;;3.17;;
6288;SDS011;3177;49.880;8.836;2023-02-28T03:07:56;3.93;;;3.63;;
6288;SDS011;3177;49.880;8.836;2023-02-28T03:10:27;3.40;;;3.17;;
6288;SDS011;3177;49.880;8.836;2023-02-28T03:12:58;3.87;;;3.50;;
6288;SDS011;3177;49.880;8.836;2023-02-28T03:15:29;3.50;;;3.20;;
6288;SDS011;3177;49.880;8.836;2023-02-28T03:18:01;4.13;;;3.70;;
6288;SDS011;3177;49.880;8.836;2023-02-28T03:20:35;5.97;;;3.33;;
6288;SDS011;3177;49.880;8.836;2023-02-28T03:23:09;3.80;;;3.40;;
6288;SDS011;3177;49.880;8.836;2023-02-28T03:25:38;3.30;;;3.10;;
6288;SDS011;3177;49.880;8.836;2023-02-28T03:28:10;3.80;;;3.50;;
6288;SDS011;3177;49.880;8.836;2023-02-28T03:30:42;4.47;;;4.17;;
6288;SDS011;3177;49.880;8.836;2023-02-28T03:33:12;5.07;;;3.50;;
6288;SDS011;3177;49.880;8.836;2023-02-28T03:35:42;4.00;;;3.70;;
6288;SDS011;3177;49.880;8.836;2023-02-28T03:38:12;3.57;;;3.27;;
6288;SDS011;3177;49.880;8.836;2023-02-28T03:40:42;3.97;;;3.63;;
6288;SDS011;3177;49.880;8.836;2023-02-28T03:43:10;3.53;;;3.23;;
6288;SDS011;3177;49.880;8.836;2023-02-28T03:45:39;4.47;;;4.07;;
6288;SDS011;3177;49.880;8.836;2023-02-28T03:48:09;4.07;;;3.67;;
6288;SDS011;3177;49.880;8.836;2023-02-28T03:50:39;6.13;;;3.93;;
6288;SDS011;3177;49.880;8.836;2023-02-28T03:53:07;3.83;;;3.53;;
6288;SDS011;3177;49.880;8.836;2023-02-28T03:55:38;3.97;;;3.67;;
6288;SDS011;3177;49.880;8.836;2023-02-28T03:58:09;3.90;;;3.60;;
6288;SDS011;3177;49.880;8.836;2023-02-28T04:00:38;4.03;;;3.73;;
6288;SDS011;3177;49.880;8.836;2023-02-28T04:03:06;4.63;;;3.50;;
6288;SDS011;3177;49.880;8.836;2023-02-28T04:05:33;4.00;;;3.70;;
6288;SDS011;3177;49.880;8.836;2023-02-28T04:08:12;4.67;;;4.27;;
6288;SDS011;3177;49.880;8.836;2023-02-28T04:10:40;3.80;;;3.50;;
6288;SDS011;3177;49.880;8.836;2023-02-28T04:13:08;4.03;;;3.73;;
6288;SDS011;3177;49.880;8.836;2023-02-28T04:15:35;4.43;;;4.03;;
6288;SDS011;3177;49.880;8.836;2023-02-28T04:18:02;3.83;;;3.63;;
6288;SDS011;3177;49.880;8.836;2023-02-28T04:20:29;4.00;;;3.70;;
6288;SDS011;3177;49.880;8.836;2023-02-28T04:22:56;10.50;;;4.00;;
6288;SDS011;3177;49.880;8.836;2023-02-28T04:25:24;4.13;;;3.70;;
6288;SDS011;3177;49.880;8.836;2023-02-28T04:27:52;4.30;;;3.90;;
6288;SDS011;3177;49.880;8.836;2023-02-28T04:30:19;3.87;;;3.67;;
6288;SDS011;3177;49.880;8.836;2023-02-28T04:32:46;3.93;;;3.63;;
6288;SDS011;3177;49.880;8.836;2023-02-28T04:35:15;4.37;;;3.90;;
6288;SDS011;3177;49.880;8.836;2023-02-28T04:37:42;5.47;;;4.17;;
6288;SDS011;3177;49.880;8.836;2023-02-28T04:40:10;4.20;;;3.90;;
6288;SDS011;3177;49.880;8.836;2023-02-28T04:42:37;4.47;;;4.07;;
6288;SDS011;3177;49.880;8.836;2023-02-28T04:45:06;4.13;;;3.83;;
6288;SDS011;3177;49.880;8.836;2023-02-28T04:47:35;4.30;;;4.00;;
6288;SDS011;3177;49.880;8.836;2023-02-28T04:50:02;4.03;;;3.73;;
6288;SDS011;3177;49.880;8.836;2023-02-28T04:52:29;4.77;;;3.70;;
6288;SDS011;3177;49.880;8.836;2023-02-28T04:54:56;4.53;;;4.13;;
6288;SDS011;3177;49.880;8.836;2023-02-28T04:57:23;4.17;;;3.80;;
6288;SDS011;3177;49.880;8.836;2023-02-28T04:59:50;4.00;;;3.73;;
6288;SDS011;3177;49.880;8.836;2023-02-28T05:02:19;4.83;;;4.17;;
6288;SDS011;3177;49.880;8.836;2023-02-28T05:04:46;4.20;;;3.90;;
6288;SDS011;3177;49.880;8.836;2023-02-28T05:07:13;4.53;;;3.80;;
6288;SDS011;3177;49.880;8.836;2023-02-28T05:09:40;4.10;;;3.80;;
6288;SDS011;3177;49.880;8.836;2023-02-28T05:12:08;4.63;;;4.23;;
6288;SDS011;3177;49.880;8.836;2023-02-28T05:14:35;4.57;;;3.93;;
6288;SDS011;3177;49.880;8.836;2023-02-28T05:17:02;4.10;;;3.77;;
6288;SDS011;3177;49.880;8.836;2023-02-28T05:19:31;4.23;;;3.83;;
6288;SDS011;3177;49.880;8.836;2023-02-28T05:21:58;4.60;;;4.17;;
6288;SDS011;3177;49.880;8.836;2023-02-28T05:24:25;4.47;;;4.10;;
6288;SDS011;3177;49.880;8.836;2023-02-28T05:26:52;4.00;;;3.67;;
6288;SDS011;3177;49.880;8.836;2023-02-28T05:29:20;4.30;;;4.00;;
6288;SDS011;3177;49.880;8.836;2023-02-28T05:31:47;4.40;;;4.00;;
6288;SDS011;3177;49.880;8.836;2023-02-28T05:34:15;4.37;;;3.97;;
6288;SDS011;3177;49.880;8.836;2023-02-28T05:36:43;4.40;;;4.07;;
6288;SDS011;3177;49.880;8.836;2023-02-28T05:39:10;6.33;;;4.53;;
6288;SDS011;3177;49.880;8.836;2023-02-28T05:41:39;4.40;;;4.00;;
6288;SDS011;3177;49.880;8.836;2023-02-28T05:44:08;4.67;;;4.27;;
6288;SDS011;3177;49.880;8.836;2023-02-28T05:46:35;4.47;;;4.03;;
6288;SDS011;3177;49.880;8.836;2023-02-28T05:49:06;4.07;;;3.77;;
6288;SDS011;3177;49.880;8.836;2023-02-28T05:51:33;4.93;;;3.97;;
6288;SDS011;3177;49.880;8.836;2023-02-28T05:54:02;4.27;;;3.87;;
6288;SDS011;3177;49.880;8.836;2023-02-28T05:56:29;4.87;;;4.03;;
6288;SDS011;3177;49.880;8.836;2023-02-28T05:58:56;3.93;;;3.63;;
6288;SDS011;3177;49.880;8.836;2023-02-28T06:01:34;4.20;;;3.80;;
6288;SDS011;3177;49.880;8.836;2023-02-28T06:04:01;9.00;;;4.03;;
6288;SDS011;3177;49.880;8.836;2023-02-28T06:06:29;4.50;;;4.10;;
6288;SDS011;3177;49.880;8.836;2023-02-28T06:08:56;4.07;;;3.77;;
6288;SDS011;3177;49.880;8.836;2023-02-28T06:11:24;4.60;;;4.30;;
6288;SDS011;3177;49.880;8.836;2023-02-28T06:13:53;5.17;;;4.67;;
6288;SDS011;3177;49.880;8.836;2023-02-28T06:16:21;6.40;;;4.50;;
6288;SDS011;3177;49.880;8.836;2023-02-28T06:18:48;4.50;;;4.10;;
6288;SDS011;3177;49.880;8.836;2023-02-28T06:21:15;4.10;;;3.83;;
6288;SDS011;3177;49.880;8.836;2023-02-28T06:23:42;5.53;;;4.20;;
6288;SDS011;3177;49.880;8.836;2023-02-28T06:26:09;5.67;;;5.17;;
6288;SDS011;3177;49.880;8.836;2023-02-28T06:28:38;5.30;;;4.80;;
6288;SDS011;3177;49.880;8.836;2023-02-28T06:31:06;6.23;;;4.47;;
6288;SDS011;3177;49.880;8.836;2023-02-28T06:33:33;5.50;;;5.00;;
6288;SDS011;3177;49.880;8.836;2023-02-28T06:36:00;6.80;;;5.00;;
6288;SDS011;3177;49.880;8.836;2023-02-28T06:38:27;5.00;;;4.60;;
6288;SDS011;3177;49.880;8.836;2023-02-28T06:40:54;5.10;;;4.70;;
6288;SDS011;3177;49.880;8.836;2023-02-28T06:43:22;5.10;;;4.60;;
6288;SDS011;3177;49.880;8.836;2023-02-28T06:45:50;5.37;;;4.87;;
6288;SDS011;3177;49.880;8.836;2023-02-28T06:48:20;5.17;;;4.67;;
6288;SDS011;3177;49.880;8.836;2023-02-28T06:50:47;6.13;;;4.67;;
6288;SDS011;3177;49.880;8.836;2023-02-28T06:53:15;5.23;;;4.63;;
6288;SDS011;3177;49.880;8.836;2023-02-28T06:55:42;5.13;;;4.63;;
6288;SDS011;3177;49.880;8.836;2023-02-28T06:58:09;6.07;;;4.63;;
6288;SDS011;3177;49.880;8.836;2023-02-28T07:00:40;5.77;;;5.20;;
6288;SDS011;3177;49.880;8.836;2023-02-28T07:03:10;8.00;;;5.30;;
6288;SDS011;3177;49.880;8.836;2023-02-28T07:05:38;5.73;;;5.07;;
6288;SDS011;3177;49.880;8.836;2023-02-28T07:08:05;5.97;;;5.07;;
6288;SDS011;3177;49.880;8.836;2023-02-28T07:10:33;6.63;;;4.90;;
6288;SDS011;3177;49.880;8.836;2023-02-28T07:13:00;5.17;;;4.67;;
6288;SDS011;3177;49.880;8.836;2023-02-28T07:15:28;4.80;;;4.33;;
6288;SDS011;3177;49.880;8.836;2023-02-28T07:20:27;8.43;;;5.67;;
6288;SDS011;3177;49.880;8.836;2023-02-28T07:22:54;5.67;;;4.83;;
6288;SDS011;3177;49.880;8.836;2023-02-28T07:25:22;7.70;;;5.47;;
6288;SDS011;3177;49.880;8.836;2023-02-28T07:27:49;6.03;;;4.93;;
6288;SDS011;3177;49.880;8.836;2023-02-28T07:30:17;5.10;;;4.70;;
6288;SDS011;3177;49.880;8.836;2023-02-28T07:32:44;5.03;;;4.63;;
6288;SDS011;3177;49.880;8.836;2023-02-28T07:35:18;5.30;;;4.83;;
6288;SDS011;3177;49.880;8.836;2023-02-28T07:37:46;6.80;;;5.10;;
6288;SDS011;3177;49.880;8.836;2023-02-28T07:40:14;4.80;;;4.37;;
6288;SDS011;3177;49.880;8.836;2023-02-28T07:42:42;4.60;;;4.20;;
6288;SDS011;3177;49.880;8.836;2023-02-28T07:45:10;5.67;;;4.50;;
6288;SDS011;3177;49.880;8.836;2023-02-28T07:47:37;4.53;;;4.17;;
6288;SDS011;3177;49.880;8.836;2023-02-28T07:50:05;4.63;;;4.33;;
6288;SDS011;3177;49.880;8.836;2023-02-28T07:52:32;5.37;;;4.83;;
6288;SDS011;3177;49.880;8.836;2023-02-28T07:55:00;4.93;;;4.33;;
6288;SDS011;3177;49.880;8.836;2023-02-28T07:57:27;4.60;;;4.13;;
6288;SDS011;3177;49.880;8.836;2023-02-28T07:59:54;4.47;;;4.07;;
6288;SDS011;3177;49.880;8.836;2023-02-28T08:02:21;4.67;;;4.27;;
6288;SDS011;3177;49.880;8.836;2023-02-28T08:04:48;4.73;;;4.33;;
6288;SDS011;3177;49.880;8.836;2023-02-28T08:07:16;5.07;;;4.10;;
6288;SDS011;3177;49.880;8.836;2023-02-28T08:09:43;4.30;;;3.70;;
6288;SDS011;3177;49.880;8.836;2023-02-28T08:12:12;4.57;;;3.23;;
6288;SDS011;3177;49.880;8.836;2023-02-28T08:14:39;4.80;;;4.40;;
6288;SDS011;3177;49.880;8.836;2023-02-28T08:17:06;2.97;;;2.77;;
6288;SDS011;3177;49.880;8.836;2023-02-28T08:19:33;5.77;;;4.73;;
6288;SDS011;3177;49.880;8.836;2023-02-28T08:22:01;4.40;;;4.10;;
6288;SDS011;3177;49.880;8.836;2023-02-28T08:24:28;3.40;;;3.10;;
6288;SDS011;3177;49.880;8.836;2023-02-28T08:26:55;4.20;;;3.77;;
6288;SDS011;3177;49.880;8.836;2023-02-28T08:29:24;4.20;;;3.90;;
6288;SDS011;3177;49.880;8.836;2023-02-28T08:31:51;4.50;;;4.10;;
6288;SDS011;3177;49.880;8.836;2023-02-28T08:34:18;4.53;;;3.93;;
6288;SDS011;3177;49.880;8.836;2023-02-28T08:36:45;5.27;;;4.73;;
6288;SDS011;3177;49.880;8.836;2023-02-28T08:39:12;4.90;;;4.37;;
6288;SDS011;3177;49.880;8.836;2023-02-28T08:41:39;5.57;;;4.20;;
6288;SDS011;3177;49.880;8.836;2023-02-28T08:44:06;5.10;;;4.67;;
6288;SDS011;3177;49.880;8.836;2023-02-28T08:46:35;4.33;;;3.97;;
6288;SDS011;3177;49.880;8.836;2023-02-28T08:49:02;9.00;;;5.07;;
6288;SDS011;3177;49.880;8.836;2023-02-28T08:51:29;5.17;;;4.53;;
6288;SDS011;3177;49.880;8.836;2023-02-28T08:53:58;5.43;;;4.77;;
6288;SDS011;3177;49.880;8.836;2023-02-28T08:56:26;6.03;;;5.43;;
6288;SDS011;3177;49.880;8.836;2023-02-28T08:58:54;6.83;;;5.10;;
6288;SDS011;3177;49.880;8.836;2023-02-28T09:01:22;6.47;;;5.13;;
6288;SDS011;3177;49.880;8.836;2023-02-28T09:03:51;4.47;;;3.73;;
6288;SDS011;3177;49.880;8.836;2023-02-28T09:06:18;5.73;;;5.10;;
6288;SDS011;3177;49.880;8.836;2023-02-28T09:08:46;5.63;;;5.03;;
6288;SDS011;3177;49.880;8.836;2023-02-28T09:11:13;5.80;;;5.27;;
6288;SDS011;3177;49.880;8.836;2023-02-28T09:13:40;6.80;;;5.47;;
6288;SDS011;3177;49.880;8.836;2023-02-28T09:16:08;5.97;;;5.40;;
6288;SDS011;3177;49.880;8.836;2023-02-28T09:18:36;7.60;;;4.67;;
6288;SDS011;3177;49.880;8.836;2023-02-28T09:21:05;6.37;;;4.73;;
6288;SDS011;3177;49.880;8.836;2023-02-28T09:23:33;6.77;;;4.50;;
6288;SDS011;3177;49.880;8.836;2023-02-28T09:26:00;5.37;;;4.83;;
6288;SDS011;3177;49.880;8.836;2023-02-28T09:28:27;5.90;;;5.27;;
6288;SDS011;3177;49.880;8.836;2023-02-28T09:30:54;5.33;;;4.53;;
6288;SDS011;3177;49.880;8.836;2023-02-28T09:33:22;5.13;;;4.60;;
6288;SDS011;3177;49.880;8.836;2023-02-28T09:35:50;5.87;;;5.27;;
6288;SDS011;3177;49.880;8.836;2023-02-28T09:38:19;5.50;;;5.00;;
6288;SDS011;3177;49.880;8.836;2023-02-28T09:40:47;6.57;;;5.50;;
6288;SDS011;3177;49.880;8.836;2023-02-28T09:43:15;5.80;;;5.03;;
6288;SDS011;3177;49.880;8.836;2023-02-28T09:45:44;5.57;;;4.67;;
6288;SDS011;3177;49.880;8.836;2023-02-28T09:48:16;6.23;;;4.43;;
6288;SDS011;3177;49.880;8.836;2023-02-28T09:50:45;5.80;;;4.90;;
6288;SDS011;3177;49.880;8.836;2023-02-28T09:53:15;5.80;;;4.77;;
6288;SDS011;3177;49.880;8.836;2023-02-28T09:55:48;6.90;;;5.33;;
6288;SDS011;3177;49.880;8.836;2023-02-28T09:58:18;5.50;;;5.00;;
6288;SDS011;3177;49.880;8.836;2023-02-28T10:00:47;5.73;;;5.13;;
6288;SDS011;3177;49.880;8.836;2023-02-28T10:03:24;5.67;;;5.17;;
6288;SDS011;3177;49.880;8.836;2023-02-28T10:05:53;4.70;;;3.97;;
6288;SDS011;3177;49.880;8.836;2023-02-28T10:08:24;5.13;;;4.33;;
6288;SDS011;3177;49.880;8.836;2023-02-28T10:10:55;6.83;;;4.93;;
6288;SDS011;3177;49.880;8.836;2023-02-28T10:13:24;5.37;;;4.57;;
6288;SDS011;3177;49.880;8.836;2023-02-28T10:15:52;3.97;;;3.60;;
6288;SDS011;3177;49.880;8.836;2023-02-28T10:18:23;5.30;;;4.80;;
6288;SDS011;3177;49.880;8.836;2023-02-28T10:20:51;5.17;;;4.63;;
6288;SDS011;3177;49.880;8.836;2023-02-28T10:23:21;6.50;;;4.63;;
6288;SDS011;3177;49.880;8.836;2023-02-28T10:25:53;5.30;;;4.43;;
6288;SDS011;3177;49.880;8.836;2023-02-28T10:28:22;4.93;;;4.53;;
6288;SDS011;3177;49.880;8.836;2023-02-28T10:30:52;5.13;;;4.63;;
6288;SDS011;3177;49.880;8.836;2023-02-28T10:33:21;5.67;;;4.90;;
6288;SDS011;3177;49.880;8.836;2023-02-28T10:35:48;5.37;;;4.53;;
6288;SDS011;3177;49.880;8.836;2023-02-28T10:38:17;4.87;;;4.33;;
6288;SDS011;3177;49.880;8.836;2023-02-28T10:40:44;5.87;;;4.97;;
6288;SDS011;3177;49.880;8.836;2023-02-28T10:43:18;4.50;;;4.10;;
6288;SDS011;3177;49.880;8.836;2023-02-28T10:45:53;5.03;;;4.63;;
6288;SDS011;3177;49.880;8.836;2023-02-28T10:48:34;4.90;;;4.40;;
6288;SDS011;3177;49.880;8.836;2023-02-28T10:51:03;6.07;;;4.60;;
6288;SDS011;3177;49.880;8.836;2023-02-28T10:53:32;5.43;;;4.43;;
6288;SDS011;3177;49.880;8.836;2023-02-28T10:56:00;10.03;;;4.57;;
6288;SDS011;3177;49.880;8.836;2023-02-28T10:58:29;5.97;;;4.77;;
6288;SDS011;3177;49.880;8.836;2023-02-28T11:00:58;4.77;;;4.20;;
6288;SDS011;3177;49.880;8.836;2023-02-28T11:03:29;4.40;;;4.00;;
6288;SDS011;3177;49.880;8.836;2023-02-28T11:05:56;5.20;;;3.80;;
6288;SDS011;3177;49.880;8.836;2023-02-28T11:08:23;4.97;;;4.43;;
6288;SDS011;3177;49.880;8.836;2023-02-28T11:10:54;4.40;;;4.00;;
6288;SDS011;3177;49.880;8.836;2023-02-28T11:13:25;4.83;;;4.30;;
6288;SDS011;3177;49.880;8.836;2023-02-28T11:15:53;5.77;;;4.67;;
6288;SDS011;3177;49.880;8.836;2023-02-28T11:18:26;4.80;;;4.30;;
6288;SDS011;3177;49.880;8.836;2023-02-28T11:20:54;4.50;;;4.10;;
6288;SDS011;3177;49.880;8.836;2023-02-28T11:23:23;5.40;;;4.90;;
6288;SDS011;3177;49.880;8.836;2023-02-28T11:25:52;5.00;;;4.50;;
6288;SDS011;3177;49.880;8.836;2023-02-28T11:28:26;4.40;;;4.00;;
6288;SDS011;3177;49.880;8.836;2023-02-28T11:31:03;5.00;;;4.50;;
6288;SDS011;3177;49.880;8.836;2023-02-28T11:33:37;6.27;;;4.40;;
6288;SDS011;3177;49.880;8.836;2023-02-28T11:36:09;5.77;;;4.20;;
6288;SDS011;3177;49.880;8.836;2023-02-28T11:38:37;6.53;;;4.53;;
6288;SDS011;3177;49.880;8.836;2023-02-28T11:41:07;5.50;;;4.87;;
6288;SDS011;3177;49.880;8.836;2023-02-28T11:43:40;6.07;;;5.07;;
6288;SDS011;3177;49.880;8.836;2023-02-28T11:46:16;4.30;;;3.90;;
6288;SDS011;3177;49.880;8.836;2023-02-28T11:48:49;4.93;;;4.33;;
6288;SDS011;3177;49.880;8.836;2023-02-28T11:51:19;4.20;;;3.80;;
6288;SDS011;3177;49.880;8.836;2023-02-28T11:53:51;5.47;;;4.97;;
6288;SDS011;3177;49.880;8.836;2023-02-28T11:56:23;4.73;;;4.23;;
6288;SDS011;3177;49.880;8.836;2023-02-28T11:58:55;13.73;;;4.77;;
6288;SDS011;3177;49.880;8.836;2023-02-28T12:01:32;5.27;;;4.47;;
6288;SDS011;3177;49.880;8.836;2023-02-28T12:04:09;5.37;;;4.80;;
6288;SDS011;3177;49.880;8.836;2023-02-28T12:06:38;5.93;;;4.73;;
6288;SDS011;3177;49.880;8.836;2023-02-28T12:09:12;4.80;;;4.30;;
6288;SDS011;3177;49.880;8.836;2023-02-28T12:11:44;5.00;;;4.50;;
6288;SDS011;3177;49.880;8.836;2023-02-28T12:16:58;7.10;;;4.73;;
6288;SDS011;3177;49.880;8.836;2023-02-28T12:19:31;5.53;;;4.90;;
6288;SDS011;3177;49.880;8.836;2023-02-28T12:22:09;5.33;;;4.83;;
6288;SDS011;3177;49.880;8.836;2023-02-28T12:27:26;5.33;;;4.33;;
6288;SDS011;3177;49.880;8.836;2023-02-28T12:29:55;5.27;;;4.77;;
6288;SDS011;3177;49.880;8.836;2023-02-28T12:32:25;5.50;;;4.80;;
6288;SDS011;3177;49.880;8.836;2023-02-28T12:34:56;6.07;;;4.53;;
6288;SDS011;3177;49.880;8.836;2023-02-28T12:37:25;4.83;;;4.43;;
6288;SDS011;3177;49.880;8.836;2023-02-28T12:39:54;6.47;;;4.93;;
6288;SDS011;3177;49.880;8.836;2023-02-28T12:42:31;5.13;;;4.53;;
6288;SDS011;3177;49.880;8.836;2023-02-28T12:44:59;6.23;;;4.50;;
6288;SDS011;3177;49.880;8.836;2023-02-28T12:47:28;6.60;;;4.87;;
6288;SDS011;3177;49.880;8.836;2023-02-28T12:49:58;7.53;;;5.10;;
6288;SDS011;3177;49.880;8.836;2023-02-28T12:52:28;7.27;;;5.03;;
6288;SDS011;3177;49.880;8.836;2023-02-28T12:54:59;7.03;;;4.70;;
6288;SDS011;3177;49.880;8.836;2023-02-28T12:57:31;6.17;;;4.80;;
6288;SDS011;3177;49.880;8.836;2023-02-28T13:00:02;7.20;;;5.17;;
6288;SDS011;3177;49.880;8.836;2023-02-28T13:02:39;4.87;;;4.37;;
6288;SDS011;3177;49.880;8.836;2023-02-28T13:05:26;6.00;;;5.17;;
6288;SDS011;3177;49.880;8.836;2023-02-28T13:10:48;4.63;;;4.23;;
6288;SDS011;3177;49.880;8.836;2023-02-28T13:13:20;6.47;;;5.03;;
6288;SDS011;3177;49.880;8.836;2023-02-28T13:16:02;5.83;;;4.93;;
6288;SDS011;3177;49.880;8.836;2023-02-28T13:18:31;4.83;;;4.37;;
6288;SDS011;3177;49.880;8.836;2023-02-28T13:21:00;5.53;;;4.80;;
6288;SDS011;3177;49.880;8.836;2023-02-28T13:26:23;5.07;;;4.57;;
6288;SDS011;3177;49.880;8.836;2023-02-28T13:28:59;5.43;;;4.80;;
6288;SDS011;3177;49.880;8.836;2023-02-28T13:31:27;6.13;;;4.90;;
6288;SDS011;3177;49.880;8.836;2023-02-28T13:34:13;6.53;;;5.10;;
6288;SDS011;3177;49.880;8.836;2023-02-28T13:36:42;5.23;;;4.77;;
6288;SDS011;3177;49.880;8.836;2023-02-28T13:41:55;4.50;;;4.10;;
6288;SDS011;3177;49.880;8.836;2023-02-28T13:44:23;5.80;;;4.77;;
6288;SDS011;3177;49.880;8.836;2023-02-28T13:49:36;5.10;;;4.60;;
6288;SDS011;3177;49.880;8.836;2023-02-28T13:52:06;5.20;;;4.50;;
6288;SDS011;3177;49.880;8.836;2023-02-28T13:54:40;6.63;;;4.83;;
6288;SDS011;3177;49.880;8.836;2023-02-28T13:57:12;7.00;;;4.90;;
6288;SDS011;3177;49.880;8.836;2023-02-28T13:59:44;5.33;;;4.83;;
6288;SDS011;3177;49.880;8.836;2023-02-28T14:02:22;7.17;;;4.77;;
6288;SDS011;3177;49.880;8.836;2023-02-28T14:04:58;6.27;;;4.73;;
6288;SDS011;3177;49.880;8.836;2023-02-28T14:07:29;4.23;;;3.83;;
6288;SDS011;3177;49.880;8.836;2023-02-28T14:09:59;5.27;;;4.77;;
6288;SDS011;3177;49.880;8.836;2023-02-28T14:15:26;8.37;;;5.00;;
6288;SDS011;3177;49.880;8.836;2023-02-28T14:17:53;4.73;;;4.23;;
6288;SDS011;3177;49.880;8.836;2023-02-28T14:20:21;5.37;;;4.77;;
6288;SDS011;3177;49.880;8.836;2023-02-28T14:22:53;5.53;;;4.73;;
6288;SDS011;3177;49.880;8.836;2023-02-28T14:25:23;4.83;;;4.33;;
6288;SDS011;3177;49.880;8.836;2023-02-28T14:27:57;4.93;;;4.40;;
6288;SDS011;3177;49.880;8.836;2023-02-28T14:30:43;7.57;;;4.30;;
6288;SDS011;3177;49.880;8.836;2023-02-28T14:33:19;6.30;;;4.77;;
6288;SDS011;3177;49.880;8.836;2023-02-28T14:35:58;5.77;;;4.60;;
6288;SDS011;3177;49.880;8.836;2023-02-28T14:38:29;6.17;;;4.50;;
6288;SDS011;3177;49.880;8.836;2023-02-28T14:40:58;4.40;;;4.00;;
6288;SDS011;3177;49.880;8.836;2023-02-28T14:43:27;5.17;;;3.80;;
6288;SDS011;3177;49.880;8.836;2023-02-28T14:45:55;6.17;;;4.40;;
6288;SDS011;3177;49.880;8.836;2023-02-28T14:48:24;6.13;;;4.23;;
6288;SDS011;3177;49.880;8.836;2023-02-28T14:50:53;5.60;;;4.47;;
6288;SDS011;3177;49.880;8.836;2023-02-28T14:53:21;4.87;;;4.40;;
6288;SDS011;3177;49.880;8.836;2023-02-28T14:55:50;4.97;;;4.30;;
6288;SDS011;3177;49.880;8.836;2023-02-28T14:58:22;6.33;;;4.57;;
6288;SDS011;3177;49.880;8.836;2023-02-28T15:00:50;5.57;;;4.23;;
6288;SDS011;3177;49.880;8.836;2023-02-28T15:03:18;4.27;;;3.87;;
6288;SDS011;3177;49.880;8.836;2023-02-28T15:05:50;5.07;;;4.40;;
6288;SDS011;3177;49.880;8.836;2023-02-28T15:08:18;5.17;;;4.33;;
6288;SDS011;3177;49.880;8.836;2023-02-28T15:10:49;4.30;;;3.90;;
6288;SDS011;3177;49.880;8.836;2023-02-28T15:13:18;7.27;;;4.60;;
6288;SDS011;3177;49.880;8.836;2023-02-28T15:15:47;4.87;;;4.10;;
6288;SDS011;3177;49.880;8.836;2023-02-28T15:18:16;5.33;;;4.27;;
6288;SDS011;3177;49.880;8.836;2023-02-28T15:20:47;6.13;;;4.33;;
6288;SDS011;3177;49.880;8.836;2023-02-28T15:23:14;5.37;;;4.30;;
6288;SDS011;3177;49.880;8.836;2023-02-28T15:25:41;5.60;;;4.40;;
6288;SDS011;3177;49.880;8.836;2023-02-28T15:28:11;4.63;;;4.23;;
6288;SDS011;3177;49.880;8.836;2023-02-28T15:30:49;4.60;;;4.20;;
6288;SDS011;3177;49.880;8.836;2023-02-28T15:33:18;6.90;;;5.00;;
6288;SDS011;3177;49.880;8.836;2023-02-28T15:35:46;5.50;;;4.57;;
6288;SDS011;3177;49.880;8.836;2023-02-28T15:38:14;5.33;;;4.47;;
6288;SDS011;3177;49.880;8.836;2023-02-28T15:40:42;5.10;;;4.60;;
6288;SDS011;3177;49.880;8.836;2023-02-28T15:43:13;5.20;;;4.70;;
6288;SDS011;3177;49.880;8.836;2023-02-28T15:45:44;5.20;;;4.70;;
6288;SDS011;3177;49.880;8.836;2023-02-28T15:48:16;4.67;;;4.10;;
6288;SDS011;3177;49.880;8.836;2023-02-28T15:50:44;6.17;;;4.20;;
6288;SDS011;3177;49.880;8.836;2023-02-28T15:53:15;6.33;;;4.63;;